.
WxDataArchive / Data Records for 2015-06-26
2015-06-25 June 2015 2015-06-27

Data Records for Friday, 26 June 2015

Time	Temp	Chill	HIndex	Humid	Dewpt	 Wind 	HiWind	WindDir	Rain 	Barom
-----	----	-----	------	-----	-----	------	------	-------	-----	-----
00:00	68.6	68.6	68.6	94	66.8	0	3	90	0.00	29.923 
00:05	68.6	68.6	68.6	95	67.1	1	3	90	0.00	29.923 
00:10	68.6	68.6	68.6	95	67.1	0	3	90	0.00	29.923 
00:15	68.6	68.6	68.6	95	67.1	0	1	90	0.00	29.933 
00:20	68.6	68.6	68.6	95	67.1	0	3	90	0.00	29.933 
00:25	68.6	68.6	68.6	95	67.1	1	5	90	0.00	29.933 
00:30	68.6	68.6	68.6	95	67.1	1	3	90	0.00	29.923 
00:35	68.6	68.6	68.6	95	67.1	1	4	90	0.00	29.923 
00:40	68.4	68.4	68.4	95	66.9	0	3	90	0.00	29.923 
00:45	68.4	68.4	68.4	95	66.9	0	3	90	0.00	29.926 
00:50	68.4	68.4	68.4	95	66.9	1	3	90	0.00	29.926 
00:55	68.4	68.4	68.4	95	66.9	0	2	90	0.00	29.926 
01:00	68.4	68.4	68.4	95	66.9	0	1	90	0.00	29.924 
01:05	68.4	68.4	68.4	95	66.9	0	2	90	0.00	29.924 
01:10	68.4	68.4	68.4	95	66.9	1	3	90	0.00	29.924 
01:15	68.4	68.4	68.4	95	66.9	0	3	90	0.00	29.926 
01:20	68.4	68.4	68.4	95	66.9	0	2	90	0.00	29.926 
01:25	68.4	68.4	68.4	95	66.9	0	2	90	0.00	29.926 
01:30	68.3	68.3	68.3	94	66.5	1	4	90	0.00	29.925 
01:35	68.1	68.1	68.1	94	66.3	1	4	90	0.00	29.925 
01:40	68.1	68.1	68.1	94	66.3	1	3	90	0.00	29.925 
01:45	68.1	68.1	68.1	94	66.3	1	4	90	0.00	29.922 
01:50	67.9	67.9	67.9	94	66.1	1	3	90	0.00	29.922 
01:55	67.9	67.9	67.9	94	66.1	0	2	90	0.00	29.922 
02:00	67.9	67.9	67.9	94	66.1	1	4	90	0.00	29.911 
02:05	67.9	67.9	67.9	94	66.1	0	1	90	0.00	29.911 
02:10	67.8	67.8	67.8	94	66.0	1	3	90	0.00	29.911 
02:15	67.8	67.8	67.8	94	66.0	0	1	90	0.00	29.901 
02:20	67.6	67.6	67.6	94	65.8	0	2	90	0.00	29.901 
02:25	67.6	67.6	67.6	94	65.8	1	2	90	0.00	29.901 
02:30	67.4	67.4	67.4	94	65.6	0	1	90	0.00	29.888 
02:35	67.4	67.4	67.4	94	65.6	1	4	90	0.00	29.888 
02:40	67.3	67.3	67.3	94	65.5	0	3	90	0.00	29.888 
02:45	67.3	67.3	67.3	94	65.5	1	4	90	0.00	29.896 
02:50	67.3	67.3	67.3	94	65.5	0	1	90	0.00	29.896 
02:55	67.3	67.3	67.3	94	65.5	0	2	90	0.00	29.896 
03:00	67.1	67.1	67.1	94	65.3	0	2	90	0.00	29.895 
03:05	67.1	67.1	67.1	94	65.3	0	1	90	0.00	29.895 
03:10	67.1	67.1	67.1	94	65.3	0	2	90	0.00	29.895 
03:15	67.1	67.1	67.1	94	65.3	0	1	90	0.00	29.902 
03:20	67.3	67.3	67.3	94	65.5	0	2	90	0.00	29.902 
03:25	67.3	67.3	67.3	94	65.5	0	2	90	0.00	29.902 
03:30	67.1	67.1	67.1	94	65.3	0	2	90	0.00	29.903 
03:35	67.1	67.1	67.1	94	65.3	0	3	90	0.00	29.903 
03:40	67.1	67.1	67.1	94	65.3	0	3	90	0.00	29.903 
03:45	67.1	67.1	67.1	94	65.3	0	3	90	0.00	29.897 
03:50	67.1	67.1	67.1	94	65.3	1	3	90	0.00	29.897 
03:55	67.1	67.1	67.1	94	65.3	1	3	90	0.00	29.897 
04:00	67.1	67.1	67.1	94	65.3	0	4	90	0.00	29.897 
04:05	67.1	67.1	67.1	94	65.3	0	2	90	0.00	29.897 
04:10	66.9	66.9	66.9	94	65.1	1	3	90	0.00	29.897 
04:15	66.9	66.9	66.9	94	65.1	2	4	90	0.00	29.888 
04:20	66.8	66.8	66.8	94	65.0	1	4	90	0.00	29.888 
04:25	66.8	66.8	66.8	94	65.0	1	4	90	0.00	29.888 
04:30	66.6	66.6	66.6	94	64.8	1	6	90	0.00	29.885 
04:35	66.4	66.4	66.4	94	64.6	1	6	90	0.00	29.885 
04:40	66.4	66.4	66.4	94	64.6	1	5	90	0.00	29.885 
04:45	66.4	66.4	66.4	94	64.6	2	5	90	0.00	29.888 
04:50	66.3	66.3	66.3	94	64.5	1	5	90	0.00	29.888 
04:55	66.3	66.3	66.3	94	64.5	1	3	90	0.00	29.888 
05:00	66.3	66.3	66.3	94	64.5	1	5	90	0.00	29.888 
05:05	66.3	66.3	66.3	94	64.5	1	4	90	0.00	29.888 
05:10	66.3	66.3	66.3	94	64.5	1	3	90	0.00	29.888 
05:15	66.3	66.3	66.3	94	64.5	1	3	90	0.00	29.890 
05:20	66.3	66.3	66.3	94	64.5	1	4	90	0.00	29.890 
05:25	66.3	66.3	66.3	94	64.5	2	5	90	0.00	29.890 
05:30	66.3	66.3	66.3	94	64.5	1	4	90	0.00	29.891 
05:35	66.3	66.3	66.3	94	64.5	1	3	90	0.00	29.891 
05:40	66.3	66.3	66.3	94	64.5	1	3	90	0.00	29.891 
05:45	66.3	66.3	66.3	94	64.5	0	2	90	0.00	29.900 
05:50	66.3	66.3	66.3	94	64.5	1	3	90	0.00	29.900 
05:55	66.4	66.4	66.4	94	64.6	0	1	90	0.00	29.900 
06:00	66.4	66.4	66.4	94	64.6	1	4	90	0.00	29.929 
06:05	66.3	66.3	66.3	94	64.5	1	3	90	0.00	29.929 
06:10	66.3	66.3	66.3	94	64.5	1	3	90	0.00	29.929 
06:15	66.3	66.3	66.3	94	64.5	1	4	90	0.00	29.932 
06:20	66.3	66.3	66.3	94	64.5	1	4	90	0.00	29.932 
06:25	66.3	66.3	66.3	94	64.5	0	3	90	0.00	29.932 
06:30	66.3	66.3	66.3	94	64.5	1	3	90	0.00	29.934 
06:35	66.3	66.3	66.3	94	64.5	1	5	90	0.00	29.934 
06:40	66.3	66.3	66.3	94	64.5	0	2	90	0.00	29.934 
06:45	66.3	66.3	66.3	93	64.2	2	5	90	0.00	29.940 
06:50	66.3	66.3	66.3	93	64.2	1	3	68	0.00	29.940 
06:55	66.4	66.4	66.4	93	64.3	1	3	68	0.00	29.940 
07:00	66.4	66.4	66.4	93	64.3	1	5	68	0.00	29.943 
07:05	66.4	66.4	66.4	93	64.3	1	5	68	0.00	29.943 
07:10	66.4	66.4	66.4	93	64.3	1	3	112	0.00	29.943 
07:15	66.4	66.4	66.4	93	64.3	1	5	90	0.00	29.953 
07:20	66.6	66.6	66.6	93	64.5	3	6	90	0.00	29.953 
07:25	66.6	66.6	66.6	93	64.5	1	4	90	0.00	29.953 
07:30	66.6	66.6	66.6	93	64.5	1	4	90	0.00	29.960 
07:35	66.8	66.8	66.8	93	64.7	1	2	90	0.00	29.960 
07:40	66.8	66.8	66.8	93	64.7	1	4	90	0.00	29.960 
07:45	66.8	66.8	66.8	93	64.7	1	3	90	0.00	29.964 
07:50	66.9	66.9	66.9	93	64.8	1	2	90	0.00	29.964 
07:55	66.9	66.9	66.9	93	64.8	0	2	90	0.00	29.964 
08:00	66.9	66.9	66.9	93	64.8	1	4	90	0.00	29.961 
08:05	66.9	66.9	66.9	93	64.8	2	4	90	0.00	29.961 
08:10	66.9	66.9	66.9	93	64.8	1	4	90	0.00	29.961 
08:15	66.9	66.9	66.9	93	64.8	1	5	90	0.00	29.960 
08:20	67.1	67.1	67.1	93	65.0	1	4	90	0.00	29.960 
08:25	67.1	67.1	67.1	92	64.7	1	6	90	0.00	29.960 
08:30	67.1	67.1	67.1	92	64.7	1	5	90	0.00	29.961 
08:35	67.3	67.3	67.3	92	64.9	0	3	90	0.00	29.961 
08:40	67.3	67.3	67.3	92	64.9	1	4	90	0.00	29.961 
08:45	67.3	67.3	67.3	92	64.9	1	6	90	0.00	29.959 
08:50	67.4	67.4	67.4	92	65.0	0	5	90	0.00	29.959 
08:55	67.3	67.3	67.3	92	64.9	2	5	68	0.00	29.959 
09:00	67.4	67.4	67.4	92	65.0	1	4	68	0.00	29.958 
09:05	67.6	67.6	67.6	92	65.2	1	2	68	0.00	29.958 
09:10	67.6	67.6	67.6	92	65.2	0	3	68	0.00	29.958 
09:15	67.6	67.6	67.6	91	64.9	2	7	90	0.00	29.957 
09:20	67.8	67.8	67.8	90	64.8	1	2	90	0.00	29.957 
09:25	67.9	67.9	67.9	89	64.5	1	5	90	0.00	29.957 
09:30	68.3	68.3	68.3	89	64.9	1	3	90	0.00	29.958 
09:35	68.6	68.6	68.6	87	64.6	1	3	90	0.00	29.958 
09:40	68.6	68.6	68.6	84	63.6	2	7	112	0.00	29.958 
09:45	68.9	68.9	68.9	82	63.2	3	9	112	0.00	29.957 
09:50	69.3	69.3	69.3	81	63.2	2	9	90	0.00	29.957 
09:55	69.8	69.8	69.8	79	63.0	1	5	90	0.00	29.957 
10:00	69.9	69.9	69.9	75	61.6	3	9	90	0.00	29.951 
10:05	70.4	70.4	70.4	76	62.5	3	7	90	0.00	29.951 
10:10	70.9	70.9	70.9	74	62.2	2	5	90	0.00	29.951 
10:15	71.5	71.5	71.5	73	62.4	2	11	90	0.00	29.952 
10:20	71.8	71.8	71.8	73	62.7	3	8	90	0.00	29.952 
10:25	72.0	72.0	72.0	71	62.1	3	10	90	0.00	29.952 
10:30	72.1	72.1	72.1	69	61.4	2	7	90	0.00	29.954 
10:35	72.1	72.1	72.1	66	60.1	4	11	90	0.00	29.954 
10:40	72.5	72.5	72.5	71	62.5	3	7	90	0.00	29.954 
10:45	72.7	72.7	72.7	66	60.7	3	7	90	0.00	29.953 
10:50	72.7	72.7	72.7	64	59.8	3	6	90	0.00	29.953 
10:55	72.7	72.7	72.7	63	59.4	2	5	112	0.00	29.953 
11:00	73.2	73.2	73.2	62	59.4	2	6	90	0.00	29.959 
11:05	73.3	73.3	73.3	60	58.6	2	6	90	0.00	29.959 
11:10	73.3	73.3	73.3	61	59.0	2	6	90	0.00	29.959 
11:15	73.2	73.2	73.2	61	58.9	3	6	90	0.00	29.956 
11:20	73.2	73.2	73.2	59	58.0	3	7	68	0.00	29.956 
11:25	73.2	73.2	73.2	60	58.5	3	6	90	0.00	29.956 
11:30	73.0	73.0	73.0	61	58.7	3	9	90	0.00	29.958 
11:35	72.8	72.8	72.8	60	58.1	3	9	90	0.00	29.958 
11:40	72.8	72.8	72.8	61	58.6	3	6	90	0.00	29.958 
11:45	72.8	72.8	72.8	62	59.0	2	6	90	0.00	29.962 
11:50	72.8	72.8	72.8	63	59.5	1	5	112	0.00	29.962 
11:55	72.8	72.8	72.8	63	59.5	2	4	90	0.00	29.962 
12:00	72.7	72.7	72.7	62	58.9	3	9	112	0.00	29.956 
12:05	72.7	72.7	72.7	62	58.9	2	9	90	0.00	29.956 
12:10	72.8	72.8	72.8	63	59.5	2	10	90	0.00	29.956 
12:15	72.8	72.8	72.8	64	59.9	3	8	90	0.00	29.958 
12:20	72.8	72.8	72.8	65	60.3	2	6	90	0.00	29.958 
12:25	72.8	72.8	72.8	65	60.3	2	6	90	0.00	29.958 
12:30	72.8	72.8	72.8	63	59.5	2	5	68	0.00	29.955 
12:35	72.8	72.8	72.8	62	59.0	2	6	68	0.00	29.955 
12:40	72.8	72.8	72.8	61	58.6	3	7	90	0.00	29.955 
12:45	72.8	72.8	72.8	62	59.0	2	5	90	0.00	29.955 
12:50	72.8	72.8	72.8	62	59.0	2	9	90	0.00	29.955 
12:55	72.8	72.8	72.8	62	59.0	2	8	90	0.00	29.955 
13:00	72.8	72.8	72.8	62	59.0	3	9	90	0.00	29.950 
13:05	72.8	72.8	72.8	62	59.0	2	5	90	0.00	29.950 
13:10	72.8	72.8	72.8	62	59.0	2	6	68	0.00	29.950 
13:15	73.0	73.0	73.0	61	58.7	2	5	68	0.00	29.952 
13:20	72.8	72.8	72.8	58	57.1	2	5	68	0.00	29.952 
13:25	72.8	72.8	72.8	58	57.1	3	6	68	0.00	29.952 
13:30	72.8	72.8	72.8	57	56.7	2	6	90	0.00	29.954 
13:35	73.0	73.0	73.0	59	57.8	1	4	90	0.00	29.954 
13:40	73.0	73.0	73.0	61	58.7	0	2	90	0.00	29.954 
13:45	73.2	73.2	73.2	60	58.5	2	4	90	0.00	29.955 
13:50	73.0	73.0	73.0	59	57.8	2	5	90	0.00	29.955 
13:55	73.0	73.0	73.0	60	58.3	1	3	68	0.00	29.955 
14:00	73.2	73.2	73.2	61	58.9	1	4	68	0.00	29.951 
14:05	73.2	73.2	73.2	62	59.4	1	4	68	0.00	29.951 
14:10	73.2	73.2	73.2	62	59.4	1	4	68	0.00	29.951 
14:15	73.2	73.2	73.2	63	59.8	2	7	45	0.00	29.940 
14:20	73.0	73.0	73.0	63	59.6	2	6	90	0.00	29.940 
14:25	73.0	73.0	73.0	63	59.6	2	6	90	0.00	29.940 
14:30	73.0	73.0	73.0	63	59.6	3	6	90	0.00	29.925 
14:35	73.0	73.0	73.0	64	60.1	2	6	90	0.00	29.925 
14:40	72.8	72.8	72.8	65	60.3	2	6	112	0.00	29.925 
14:45	72.8	72.8	72.8	66	60.8	1	5	90	0.00	29.923 
14:50	72.8	72.8	72.8	67	61.2	1	7	90	0.00	29.923 
14:55	72.7	72.7	72.7	67	61.1	1	6	90	0.00	29.923 
15:00	72.7	72.7	72.7	67	61.1	2	5	90	0.00	29.937 
15:05	72.7	72.7	72.7	69	61.9	1	4	90	0.00	29.937 
15:10	72.5	72.5	72.5	68	61.3	1	4	90	0.00	29.937 
15:15	72.5	72.5	72.5	69	61.7	1	4	90	0.00	29.938 
15:20	72.3	72.3	72.3	68	61.1	2	5	90	0.00	29.938 
15:25	72.1	72.1	72.1	68	60.9	3	6	90	0.00	29.938 
15:30	72.1	72.1	72.1	69	61.4	1	4	68	0.00	29.939 
15:35	72.0	72.0	72.0	70	61.7	1	4	90	0.00	29.939 
15:40	72.0	72.0	72.0	73	62.9	1	3	90	0.00	29.939 
15:45	71.6	71.6	71.6	74	62.9	1	3	90	0.00	29.939 
15:50	71.3	71.3	71.3	76	63.3	1	4	90	0.01	29.939 
15:55	70.6	70.6	70.6	77	63.0	1	3	90	0.01	29.939 
16:00	69.6	69.6	69.6	79	62.8	1	4	68	0.00	29.938 
16:05	68.9	68.9	68.9	80	62.5	0	3	68	0.01	29.938 
16:10	68.3	68.3	68.3	82	62.6	0	1	112	0.01	29.938 
16:15	67.9	67.9	67.9	83	62.5	0	1	112	0.01	29.943 
16:20	67.6	67.6	67.6	84	62.6	0	1	112	0.00	29.943 
16:25	67.3	67.3	67.3	84	62.3	0	2	112	0.01	29.943 
16:30	66.9	66.9	66.9	86	62.6	0	2	112	0.01	29.943 
16:35	66.9	66.9	66.9	87	62.9	0	2	112	0.01	29.943 
16:40	66.9	66.9	66.9	88	63.2	1	3	112	0.00	29.943 
16:45	67.1	67.1	67.1	90	64.1	1	3	112	0.01	29.931 
16:50	67.3	67.3	67.3	90	64.3	1	3	112	0.01	29.931 
16:55	67.3	67.3	67.3	90	64.3	2	5	90	0.00	29.931 
17:00	67.1	67.1	67.1	90	64.1	3	6	90	0.00	29.930 
17:05	66.9	66.9	66.9	90	63.9	2	9	90	0.01	29.930 
17:10	66.6	66.6	66.6	90	63.6	2	6	90	0.00	29.930 
17:15	66.0	66.0	66.0	88	62.3	3	7	90	0.00	29.930 
17:20	65.5	65.5	65.5	89	62.2	2	5	90	0.01	29.930 
17:25	65.3	65.3	65.3	89	62.0	2	6	90	0.00	29.930 
17:30	65.0	65.0	65.0	89	61.7	2	6	68	0.00	29.917 
17:35	65.0	65.0	65.0	89	61.7	2	7	90	0.01	29.917 
17:40	64.8	64.8	64.8	90	61.8	2	6	90	0.01	29.917 
17:45	64.8	64.8	64.8	90	61.8	3	6	112	0.01	29.913 
17:50	64.7	64.7	64.7	91	62.0	3	10	112	0.01	29.913 
17:55	64.7	64.7	64.7	91	62.0	2	9	90	0.01	29.913 
18:00	64.7	64.7	64.7	91	62.0	2	5	68	0.00	29.914 
18:05	64.7	64.7	64.7	92	62.3	2	6	90	0.01	29.914 
18:10	64.7	64.7	64.7	92	62.3	1	4	90	0.00	29.914 
18:15	64.8	64.8	64.8	92	62.4	1	4	112	0.00	29.916 
18:20	64.8	64.8	64.8	92	62.4	1	6	112	0.01	29.916 
18:25	64.8	64.8	64.8	92	62.4	1	3	112	0.00	29.916 
18:30	64.5	64.5	64.5	92	62.1	3	10	90	0.01	29.916 
18:35	64.3	64.3	64.3	92	61.9	2	6	90	0.00	29.916 
18:40	64.3	64.3	64.3	92	61.9	2	7	90	0.01	29.916 
18:45	64.3	64.3	64.3	92	61.9	2	6	90	0.00	29.916 
18:50	64.2	64.2	64.2	92	61.8	2	6	112	0.00	29.916 
18:55	64.2	64.2	64.2	92	61.8	2	6	112	0.01	29.916 
19:00	64.2	64.2	64.2	92	61.8	1	4	90	0.00	29.918 
19:05	64.3	64.3	64.3	92	61.9	0	2	112	0.00	29.918 
19:10	64.3	64.3	64.3	93	62.2	0	2	112	0.01	29.918 
19:15	64.5	64.5	64.5	93	62.4	1	3	112	0.00	29.918 
19:20	64.5	64.5	64.5	93	62.4	1	3	112	0.01	29.918 
19:25	64.3	64.3	64.3	93	62.2	1	5	68	0.00	29.918 
19:30	64.2	64.2	64.2	93	62.1	2	6	135	0.00	29.915 
19:35	64.0	64.0	64.0	93	61.9	2	6	90	0.01	29.915 
19:40	63.9	63.9	63.9	93	61.8	2	5	112	0.00	29.915 
19:45	63.7	63.7	63.7	92	61.3	2	5	112	0.00	29.915 
19:50	63.5	63.5	63.5	92	61.1	3	6	90	0.01	29.915 
19:55	63.4	63.4	63.4	92	61.0	2	6	90	0.00	29.915 
20:00	63.2	63.2	63.2	92	60.8	1	5	90	0.00	29.914 
20:05	63.2	63.2	63.2	92	60.8	1	4	90	0.01	29.914 
20:10	63.2	63.2	63.2	92	60.8	1	6	90	0.00	29.914 
20:15	63.2	63.2	63.2	92	60.8	2	7	90	0.00	29.915 
20:20	63.2	63.2	63.2	92	60.8	2	6	90	0.00	29.915 
20:25	63.2	63.2	63.2	92	60.8	0	4	90	0.00	29.915 
20:30	63.2	63.2	63.2	92	60.8	0	1	90	0.01	29.908 
20:35	63.4	63.4	63.4	93	61.3	0	3	90	0.00	29.908 
20:40	63.4	63.4	63.4	93	61.3	1	4	90	0.00	29.908 
20:45	63.4	63.4	63.4	93	61.3	1	7	90	0.01	29.901 
20:50	63.2	63.2	63.2	92	60.8	1	4	90	0.00	29.901 
20:55	63.2	63.2	63.2	92	60.8	1	4	90	0.00	29.901 
21:00	63.1	63.1	63.1	92	60.7	1	5	112	0.00	29.900 
21:05	63.1	63.1	63.1	92	60.7	1	5	90	0.00	29.900 
21:10	62.9	62.9	62.9	92	60.5	1	7	90	0.01	29.900 
21:15	62.9	62.9	62.9	92	60.5	2	5	90	0.00	29.900 
21:20	62.7	62.7	62.7	92	60.3	2	5	90	0.01	29.900 
21:25	62.7	62.7	62.7	92	60.3	1	7	90	0.00	29.900 
21:30	62.6	62.6	62.6	92	60.2	2	6	90	0.00	29.904 
21:35	62.6	62.6	62.6	92	60.2	1	4	112	0.00	29.904 
21:40	62.6	62.6	62.6	92	60.2	1	4	112	0.01	29.904 
21:45	62.6	62.6	62.6	93	60.5	1	3	112	0.00	29.897 
21:50	62.4	62.4	62.4	93	60.3	2	5	112	0.00	29.897 
21:55	62.4	62.4	62.4	92	60.0	1	4	90	0.01	29.897 
22:00	62.3	62.3	62.3	92	59.9	2	6	90	0.01	29.897 
22:05	62.1	62.1	62.1	92	59.7	2	6	112	0.00	29.897 
22:10	62.1	62.1	62.1	92	59.7	2	6	112	0.00	29.897 
22:15	62.1	62.1	62.1	92	59.7	1	4	90	0.01	29.897 
22:20	62.1	62.1	62.1	92	59.7	1	5	90	0.00	29.897 
22:25	62.1	62.1	62.1	92	59.7	2	5	68	0.01	29.897 
22:30	62.0	62.0	62.0	92	59.6	2	5	90	0.00	29.899 
22:35	62.0	62.0	62.0	93	59.9	1	4	90	0.01	29.899 
22:40	62.0	62.0	62.0	93	59.9	2	7	68	0.01	29.899 
22:45	62.0	62.0	62.0	93	59.9	2	4	90	0.00	29.898 
22:50	62.0	62.0	62.0	93	59.9	2	5	90	0.01	29.898 
22:55	62.0	62.0	62.0	93	59.9	2	6	90	0.02	29.898 
23:00	61.8	61.8	61.8	93	59.8	4	11	90	0.01	29.898 
23:05	61.8	61.8	61.8	93	59.8	2	6	90	0.01	29.898 
23:10	61.8	61.8	61.8	94	60.1	3	11	90	0.02	29.898 
23:15	61.8	61.8	61.8	94	60.1	2	7	90	0.00	29.898 
23:20	61.6	61.6	61.6	94	59.9	2	6	90	0.01	29.898 
23:25	61.5	61.5	61.5	94	59.8	3	9	90	0.01	29.898 
23:30	61.5	61.5	61.5	94	59.8	2	7	90	0.00	29.891 
23:35	61.5	61.5	61.5	94	59.8	1	4	90	0.01	29.891 
23:40	61.5	61.5	61.5	94	59.8	2	5	68	0.00	29.891 
23:45	61.5	61.5	61.5	94	59.8	1	4	90	0.01	29.889 
23:50	61.6	61.6	61.6	94	59.9	3	9	135	0.01	29.889 
23:55	61.6	61.6	61.6	94	59.9	2	5	90	0.00	29.889 

CoCoRaHS
IN-AL-39
A2 Web Hosting
Creative Commons License
GoDaddy
search engine by freefind advanced

loaded 2018-11-13 02:45:28 • last modified 2010-11-18 10:43:29
Privacy PolicyDisclaimer
• wx.awcolley.com is powered by PmWiki v.2002016 •
• all content (unless otherwise noted) © 2018 A W Colley